Forside
METAR-TAF:

METAR-TAF

Lufthavne :

Udaipur, Indien

Breddekreds: 24-37-04N, længdekreds: 73-53-46E, højde: 513 m

Aktuelle vejr

Denne rapport blev lavet for 1 time og 4 minutter siden, kl. 06:00 UTC
Vind 4 kt fra øst
Temperatur 22°C
Fugtighed 50%
Tryk 1022 hPa
Sigt: 5000 m
tåge/dis

METAR: VAUD 220600Z 09004KT 5000 HZ NSC 22/11 Q1022 NOSIG

Tid: 12:34 (07:04 UTC)

Vejrudsigter

Denne rapport blev lavet for 2 timer og 4 minutter siden, kl. 05:00 UTC
Foreløbig gælder fra 22 på 06 UTC til 22 på 15 UTC
Vind 5 kt fra nordnordøst
Sigt: 3000 m
Spredte skyer i en højde af 10000 ft
tåge/dis
ændring
fra 22 på 07 UTC til 22 på 09 UTC
Sigt: 5000 m
tåge/dis
ændring
fra 22 på 12 UTC til 22 på 14 UTC
Vind 2 kt fra varierende retninger
Sigt: 3000 m
Nogle få skyer i en højde af 10000 ft
tåge/dis

TAF: VAUD 220500Z 2206/2215 02005KT 3000 HZ SCT100 BECMG 2207/2209 5000 HZ BECMG 2212/2214 VRB02KT 3000 HZ FEW100

Vejrobservationer og prognoser fra mere end 4000 lufthavne (METAR og TAF).

De gule og røde prikker repræsenterer de meteorologiske stationer.

Flyt musen over at se navnet på stationen.

Så klik over at se vejr observationer og prognoser.

At skifte det kort: Klik på de grønne knapper med et sort kors for at zoome ind; på den grønne knap med en bindestreg for at zoome ud; eller på de grønne pile for tilstødende kort.


METAR-TAF: